Time;durP1;ratioP1;P1;durP2;ratioP2;P2;SDS_P1;SDS_P2;PMS_P1;PMS_P2;Temp;Humidity;BMP_temperature;BMP_pressure;BME280_temperature;BME280_humidity;BME280_pressure;Samples;Min_cycle;Max_cycle;Signal;HPM_P1;HPM_P2
2021/07/09 00:01:29;;;;;;;;;;;;;;;19.40;67.49;101505.05;453193;115;924181;-76
2021/07/09 00:02:33;;;;;;;;;;;;;;;19.41;67.51;101508.63;453326;116;922675;-75
2021/07/09 00:03:37;;;;;;;;;;;;;;;19.39;67.46;101508.06;452088;115;921612;-76
2021/07/09 00:04:40;;;;;;;;;;;;;;;19.36;67.36;101509.38;452894;115;921546;-75
2021/07/09 00:05:43;;;;;;;;;;;;;;;19.34;67.32;101516.27;453080;115;921497;-75
2021/07/09 00:06:49;;;;;;;;;;;;;;;19.31;67.40;101506.53;452469;115;921487;-75
2021/07/09 00:07:52;;;;;;;;;;;;;;;19.31;67.44;101508.45;452118;115;921559;-76
2021/07/09 00:08:56;;;;;;;;;;;;;;;19.30;67.49;101509.54;451769;115;921535;-76
2021/07/09 00:09:59;;;;;;;;;;;;;;;19.29;67.47;101507.89;453303;115;921611;-76
2021/07/09 00:11:02;;;;;;;;;;;;;;;19.29;67.46;101508.73;451973;115;921468;-76
2021/07/09 00:12:06;;;;;;;;;;;;;;;19.29;67.45;101507.89;450534;115;921614;-76
2021/07/09 00:13:09;;;;;;;;;;;;;;;19.29;67.38;101508.73;453549;116;921666;-76
2021/07/09 00:14:14;;;;;;;;;;;;;;;19.27;67.39;101508.13;455648;115;921367;-75
2021/07/09 00:15:18;;;;;;;;;;;;;;;19.27;67.43;101510.05;455824;115;921564;-76
2021/07/09 00:16:21;;;;;;;;;;;;;;;19.26;67.48;101503.69;455538;115;921490;-75
2021/07/09 00:17:25;;;;;;;;;;;;;;;19.28;67.43;101507.05;461793;113;923247;-75
2021/07/09 00:18:28;;;;;;;;;;;;;;;19.28;67.36;101507.05;447969;116;922611;-75
2021/07/09 00:19:31;;;;;;;;;;;;;;;19.28;67.37;101504.28;459971;114;922654;-76
2021/07/09 00:20:35;;;;;;;;;;;;;;;19.30;67.41;101507.62;450962;115;925493;-74
2021/07/09 00:21:38;;;;;;;;;;;;;;;19.30;67.46;101504.85;456993;114;923096;-76
2021/07/09 00:22:41;;;;;;;;;;;;;;;19.31;67.46;101508.45;456390;115;922377;-75
2021/07/09 00:23:45;;;;;;;;;;;;;;;19.30;67.45;101513.14;457768;114;922673;-75
2021/07/09 00:24:48;;;;;;;;;;;;;;;19.29;67.48;101513.42;456468;114;922710;-75
2021/07/09 00:25:51;;;;;;;;;;;;;;;19.27;67.57;101507.29;455632;115;922659;-75
2021/07/09 00:26:55;;;;;;;;;;;;;;;19.26;67.59;101506.45;456904;114;921562;-75
2021/07/09 00:27:58;;;;;;;;;;;;;;;19.24;67.57;101505.84;456001;114;922656;-76
2021/07/09 00:29:03;;;;;;;;;;;;;;;19.23;67.57;101500.59;455333;114;922717;-77
2021/07/09 00:30:06;;;;;;;;;;;;;;;19.21;67.58;101511.89;450605;115;921626;-76
2021/07/09 00:31:10;;;;;;;;;;;;;;;19.18;67.61;101510.45;457299;111;922642;-76
2021/07/09 00:32:13;;;;;;;;;;;;;;;19.18;67.68;101508.80;455726;115;923047;-75
2021/07/09 00:33:17;;;;;;;;;;;;;;;19.15;67.71;101507.36;455596;114;923158;-76
2021/07/09 00:34:21;;;;;;;;;;;;;;;19.14;67.73;101512.04;458667;114;922612;-76
2021/07/09 00:35:24;;;;;;;;;;;;;;;19.12;67.70;101513.39;453122;115;922719;-76
2021/07/09 00:36:28;;;;;;;;;;;;;;;19.11;67.77;101511.72;456216;114;921407;-75
2021/07/09 00:37:32;;;;;;;;;;;;;;;19.09;67.78;101511.95;456523;115;922719;-76
2021/07/09 00:38:35;;;;;;;;;;;;;;;19.09;67.83;101513.88;460021;114;922678;-75
2021/07/09 00:39:39;;;;;;;;;;;;;;;19.10;67.75;101515.56;456991;115;922559;-76
2021/07/09 00:40:44;;;;;;;;;;;;;;;19.11;67.63;101512.55;460288;114;922649;-76
2021/07/09 00:41:47;;;;;;;;;;;;;;;19.13;67.53;101515.08;456874;115;922877;-75
2021/07/09 00:42:51;;;;;;;;;;;;;;;19.16;67.34;101514.56;458589;114;922296;-76
2021/07/09 00:43:55;;;;;;;;;;;;;;;19.16;67.18;101509.88;448184;116;922711;-76
2021/07/09 00:44:59;;;;;;;;;;;;;;;19.17;67.00;101516.25;459440;113;922682;-75
2021/07/09 00:46:03;;;;;;;;;;;;;;;19.16;66.84;101514.56;450151;115;922672;-75
2021/07/09 00:47:06;;;;;;;;;;;;;;;19.14;66.70;101511.20;450444;116;923175;-76
2021/07/09 00:48:09;;;;;;;;;;;;;;;19.12;66.71;101513.39;447508;116;923052;-77
2021/07/09 00:49:13;;;;;;;;;;;;;;;19.11;66.78;101511.72;456245;114;924773;-75
2021/07/09 00:50:18;;;;;;;;;;;;;;;19.09;66.90;101517.48;457221;114;922708;-77
2021/07/09 00:51:21;;;;;;;;;;;;;;;19.08;66.85;101515.80;457385;113;923047;-77
2021/07/09 00:52:24;;;;;;;;;;;;;;;19.06;66.85;101517.99;459309;113;922740;-77
2021/07/09 00:53:28;;;;;;;;;;;;;;;19.05;66.82;101518.23;457876;114;922675;-77
2021/07/09 00:54:31;;;;;;;;;;;;;;;19.03;66.81;101520.39;458145;113;922659;-75
2021/07/09 00:55:34;;;;;;;;;;;;;;;19.00;66.94;101518.14;457190;114;922721;-77
2021/07/09 00:56:38;;;;;;;;;;;;;;;18.99;66.94;101525.59;458453;113;923200;-74
2021/07/09 00:57:43;;;;;;;;;;;;;;;18.98;66.98;101517.53;459757;113;921611;-76
2021/07/09 00:58:47;;;;;;;;;;;;;;;18.97;67.09;101513.09;458817;113;921477;-76
2021/07/09 00:59:51;;;;;;;;;;;;;;;18.97;66.99;101515.86;459214;113;921448;-73
2021/07/09 01:00:54;;;;;;;;;;;;;;;18.95;66.91;101520.81;458271;114;922672;-73
2021/07/09 01:02:00;;;;;;;;;;;;;;;18.92;66.84;101513.00;452540;114;921564;-76
2021/07/09 01:03:04;;;;;;;;;;;;;;;18.88;66.89;101514.59;454630;115;921529;-76
2021/07/09 01:04:08;;;;;;;;;;;;;;;18.86;67.02;101514.82;458352;114;921400;-76
2021/07/09 01:05:12;;;;;;;;;;;;;;;18.85;67.06;101520.63;458477;114;921578;-75
2021/07/09 01:06:16;;;;;;;;;;;;;;;18.85;67.04;101515.94;458387;114;921637;-75
2021/07/09 01:07:19;;;;;;;;;;;;;;;18.85;66.99;101517.86;459752;114;921533;-76
2021/07/09 01:08:23;;;;;;;;;;;;;;;18.83;66.97;101523.62;459615;114;921363;-76
2021/07/09 01:09:26;;;;;;;;;;;;;;;18.82;66.99;101518.33;461099;113;921594;-77
2021/07/09 01:10:30;;;;;;;;;;;;;;;18.80;67.05;101517.77;451326;116;921468;-76
2021/07/09 01:11:34;;;;;;;;;;;;;;;18.80;67.12;101520.52;441802;118;921554;-76
2021/07/09 01:12:38;;;;;;;;;;;;;;;18.81;67.20;101517.49;460096;114;921420;-76
2021/07/09 01:13:42;;;;;;;;;;;;;;;18.81;67.25;101519.41;451163;116;922436;-75
2021/07/09 01:14:46;;;;;;;;;;;;;;;18.81;67.21;101516.65;456529;114;922477;-74
2021/07/09 01:15:50;;;;;;;;;;;;;;;18.80;67.27;101521.33;459571;114;922380;-76
2021/07/09 01:16:54;;;;;;;;;;;;;;;18.79;67.35;101518.84;459865;113;922584;-76
2021/07/09 01:17:58;;;;;;;;;;;;;;;18.77;67.44;101521.84;459430;113;922898;-76
2021/07/09 01:19:01;;;;;;;;;;;;;;;18.77;67.59;101519.08;458386;113;921675;-75
2021/07/09 01:20:07;;;;;;;;;;;;;;;18.79;67.69;101518.84;457979;113;921492;-75
2021/07/09 01:21:10;;;;;;;;;;;;;;;18.81;67.66;101523.02;458734;113;921450;-77
2021/07/09 01:22:13;;;;;;;;;;;;;;;18.84;67.62;101524.46;457769;113;921496;-76
2021/07/09 01:23:18;;;;;;;;;;;;;;;18.87;67.52;101521.19;462191;113;921643;-76
2021/07/09 01:24:22;;;;;;;;;;;;;;;18.88;67.37;101518.19;463836;113;921458;-76
2021/07/09 01:25:27;;;;;;;;;;;;;;;18.90;67.22;101515.19;461777;113;921537;-75
2021/07/09 01:26:30;;;;;;;;;;;;;;;18.89;67.27;101519.88;462387;113;921478;-76
2021/07/09 01:27:34;;;;;;;;;;;;;;;18.87;67.23;101521.19;461713;111;921715;-77
2021/07/09 01:28:38;;;;;;;;;;;;;;;18.84;67.06;101511.48;463267;114;921446;-76
2021/07/09 01:29:41;;;;;;;;;;;;;;;18.81;67.05;101513.88;460931;114;921569;-76
2021/07/09 01:30:44;;;;;;;;;;;;;;;18.79;67.03;101516.08;461005;114;921610;-77
2021/07/09 01:31:48;;;;;;;;;;;;;;;18.77;66.97;101518.23;460199;114;921579;-77
2021/07/09 01:32:52;;;;;;;;;;;;;;;18.73;66.92;101515.14;461845;114;921403;-77
2021/07/09 01:33:55;;;;;;;;;;;;;;;18.70;66.88;101519.22;461089;114;921503;-76
2021/07/09 01:34:58;;;;;;;;;;;;;;;18.67;66.87;101513.36;458999;114;921738;-77
2021/07/09 01:36:02;;;;;;;;;;;;;;;18.68;66.88;101523.33;460668;114;921502;-76
2021/07/09 01:37:13;;;;;;;;;;;;;;;18.66;66.92;101528.24;459870;114;922625;-75
2021/07/09 01:38:18;;;;;;;;;;;;;;;18.64;66.99;101525.72;459458;114;922686;-75
2021/07/09 01:39:21;;;;;;;;;;;;;;;18.63;66.94;101531.52;459163;114;922232;-77
2021/07/09 01:40:27;;;;;;;;;;;;;;;18.62;66.96;101527.91;459009;114;922091;-75
2021/07/09 01:41:30;;;;;;;;;;;;;;;18.60;67.08;101527.30;457938;114;922682;-76
2021/07/09 01:42:34;;;;;;;;;;;;;;;18.60;67.17;101532.83;458028;114;923144;-75
2021/07/09 01:43:37;;;;;;;;;;;;;;;18.61;67.10;101523.46;457134;114;922601;-77
2021/07/09 01:44:42;;;;;;;;;;;;;;;18.59;67.04;101528.37;457277;114;923411;-76
2021/07/09 01:45:45;;;;;;;;;;;;;;;18.58;67.09;101526.70;461393;114;922629;-75
2021/07/09 01:46:49;;;;;;;;;;;;;;;18.59;67.09;101528.37;462433;114;922661;-77
2021/07/09 01:47:53;;;;;;;;;;;;;;;18.60;67.08;101538.35;460607;114;922636;-76
2021/07/09 01:48:56;;;;;;;;;;;;;;;18.60;67.07;101532.83;460568;112;922684;-76
2021/07/09 01:50:01;;;;;;;;;;;;;;;18.60;67.04;101527.30;461521;114;922632;-77
2021/07/09 01:51:04;;;;;;;;;;;;;;;18.59;67.04;101528.37;461169;114;922663;-73
2021/07/09 01:52:07;;;;;;;;;;;;;;;18.59;67.07;101524.78;461334;114;922831;-75
2021/07/09 01:53:10;;;;;;;;;;;;;;;18.59;67.06;101528.37;461088;114;922849;-75
2021/07/09 01:54:14;;;;;;;;;;;;;;;18.58;66.98;101528.64;461027;114;923180;-75
2021/07/09 01:55:18;;;;;;;;;;;;;;;18.56;66.96;101537.17;460767;114;921678;-75
2021/07/09 01:56:21;;;;;;;;;;;;;;;18.55;66.94;101524.44;459844;114;923098;-74
2021/07/09 01:57:28;;;;;;;;;;;;;;;18.53;66.90;101532.09;460343;114;922692;-76
2021/07/09 01:58:31;;;;;;;;;;;;;;;18.50;66.95;101531.74;453388;115;922253;-77
2021/07/09 01:59:34;;;;;;;;;;;;;;;18.47;66.98;101532.25;460493;114;922634;-75
2021/07/09 02:00:38;;;;;;;;;;;;;;;18.43;67.11;101534.64;452617;115;923533;-75
2021/07/09 02:01:41;;;;;;;;;;;;;;;18.41;67.25;101535.98;450656;116;923077;-75
2021/07/09 02:02:45;;;;;;;;;;;;;;;18.39;67.46;101538.98;450531;116;922738;-75
2021/07/09 02:03:48;;;;;;;;;;;;;;;18.38;67.64;101534.53;451093;116;922521;-76
2021/07/09 02:04:55;;;;;;;;;;;;;;;18.38;67.80;101534.53;448952;115;923152;-75
2021/07/09 02:05:59;;;;;;;;;;;;;;;18.39;67.95;101529.84;451510;115;922455;-76
2021/07/09 02:07:02;;;;;;;;;;;;;;;18.40;68.06;101532.37;450913;116;922549;-75
2021/07/09 02:08:06;;;;;;;;;;;;;;;18.42;68.24;101534.87;449903;116;922344;-75
2021/07/09 02:09:10;;;;;;;;;;;;;;;18.45;68.30;101531.64;452877;116;922394;-73
2021/07/09 02:10:15;;;;;;;;;;;;;;;18.46;68.33;101536.92;454115;116;923186;-74
2021/07/09 02:11:19;;;;;;;;;;;;;;;18.49;68.42;101533.66;454007;116;923024;-75
2021/07/09 02:12:23;;;;;;;;;;;;;;;18.52;68.50;101535.95;453357;116;922683;-75
2021/07/09 02:13:27;;;;;;;;;;;;;;;18.53;68.53;101534.84;453695;115;921517;-75
2021/07/09 02:14:30;;;;;;;;;;;;;;;18.53;68.49;101534.84;454751;115;923132;-75
2021/07/09 02:15:37;;;;;;;;;;;;;;;18.53;68.54;101537.61;452556;116;922721;-73
2021/07/09 02:16:42;;;;;;;;;;;;;;;18.53;68.57;101545.89;453222;116;921500;-75
2021/07/09 02:17:46;;;;;;;;;;;;;;;18.55;68.60;101532.72;452709;116;922693;-76
2021/07/09 02:18:50;;;;;;;;;;;;;;;18.57;68.54;101536.09;451941;115;922600;-76
2021/07/09 02:19:54;;;;;;;;;;;;;;;18.59;68.49;101538.59;452604;114;923107;-75
2021/07/09 02:20:58;;;;;;;;;;;;;;;18.58;68.51;101534.98;453010;116;921529;-75
2021/07/09 02:22:02;;;;;;;;;;;;;;;18.58;68.53;101536.94;452797;115;921505;-75
2021/07/09 02:23:10;;;;;;;;;;;;;;;18.58;68.41;101540.51;452752;115;922187;-76
2021/07/09 02:24:14;;;;;;;;;;;;;;;18.59;68.33;101541.34;451680;116;921315;-77
2021/07/09 02:25:18;;;;;;;;;;;;;;;18.59;68.26;101539.42;451736;116;921535;-75
2021/07/09 02:26:22;;;;;;;;;;;;;;;18.60;68.21;101540.27;451665;116;921820;-75
2021/07/09 02:27:25;;;;;;;;;;;;;;;18.62;68.16;101538.95;450869;116;921635;-75
2021/07/09 02:28:29;;;;;;;;;;;;;;;18.64;68.04;101536.77;452197;114;921568;-76
2021/07/09 02:29:33;;;;;;;;;;;;;;;18.66;67.91;101539.30;457593;114;921517;-76
2021/07/09 02:30:36;;;;;;;;;;;;;;;18.67;67.78;101544.58;455951;114;921537;-76
2021/07/09 02:31:39;;;;;;;;;;;;;;;18.67;67.74;101544.58;448940;116;921446;-75
2021/07/09 02:32:43;;;;;;;;;;;;;;;18.69;67.68;101538.79;454995;116;921486;-75
2021/07/09 02:33:47;;;;;;;;;;;;;;;18.69;67.65;101545.16;448456;116;921721;-76
2021/07/09 02:34:51;;;;;;;;;;;;;;;18.71;67.59;101548.52;455163;115;921585;-76
2021/07/09 02:35:54;;;;;;;;;;;;;;;18.74;67.58;101542.50;460955;113;921493;-75
2021/07/09 02:36:58;;;;;;;;;;;;;;;18.78;67.52;101544.78;461009;113;921554;-77
2021/07/09 02:38:01;;;;;;;;;;;;;;;18.83;67.44;101539.36;454938;115;921460;-76
2021/07/09 02:39:05;;;;;;;;;;;;;;;18.85;67.47;101542.72;460837;113;921472;-75
2021/07/09 02:40:12;;;;;;;;;;;;;;;18.84;67.53;101543.80;460985;113;922147;-75
2021/07/09 02:41:15;;;;;;;;;;;;;;;18.84;67.59;101547.41;460560;113;922798;-74
2021/07/09 02:42:18;;;;;;;;;;;;;;;18.86;67.69;101544.38;459927;114;923034;-75
2021/07/09 02:43:22;;;;;;;;;;;;;;;18.88;67.73;101548.59;460017;113;923121;-77
2021/07/09 02:44:26;;;;;;;;;;;;;;;18.89;67.84;101544.74;459466;114;922873;-75
2021/07/09 02:45:29;;;;;;;;;;;;;;;18.90;67.72;101540.91;449081;116;923156;-75
2021/07/09 02:46:34;;;;;;;;;;;;;;;18.92;67.63;101546.16;440977;117;922711;-76
2021/07/09 02:47:39;;;;;;;;;;;;;;;18.93;67.64;101545.92;458090;113;922779;-75
2021/07/09 02:48:42;;;;;;;;;;;;;;;18.94;67.68;101547.61;449689;115;922725;-74
2021/07/09 02:49:46;;;;;;;;;;;;;;;18.97;67.68;101549.02;450027;115;921696;-73
2021/07/09 02:50:51;;;;;;;;;;;;;;;18.98;67.69;101547.94;459110;114;922887;-73
2021/07/09 02:51:54;;;;;;;;;;;;;;;18.99;67.72;101544.09;458842;114;923159;-73
2021/07/09 02:52:57;;;;;;;;;;;;;;;19.01;67.79;101551.07;459584;114;921504;-73
2021/07/09 02:54:01;;;;;;;;;;;;;;;19.03;67.75;101548.87;458678;114;923686;-73
2021/07/09 02:55:05;;;;;;;;;;;;;;;19.04;67.66;101545.03;458828;114;923234;-74
2021/07/09 02:56:09;;;;;;;;;;;;;;;19.07;67.61;101549.24;459456;114;921461;-75
2021/07/09 02:57:12;;;;;;;;;;;;;;;19.08;67.59;101540.67;457135;114;922726;-74
2021/07/09 02:58:16;;;;;;;;;;;;;;;19.09;67.51;101544.28;457879;112;922345;-76
2021/07/09 02:59:19;;;;;;;;;;;;;;;19.08;67.41;101545.36;449631;116;922663;-74
2021/07/09 03:00:23;;;;;;;;;;;;;;;19.07;67.34;101546.48;440837;116;923228;-73
2021/07/09 03:01:27;;;;;;;;;;;;;;;19.06;67.32;101540.11;447602;116;922698;-76
2021/07/09 03:02:31;;;;;;;;;;;;;;;19.06;67.32;101547.56;456373;115;922702;-75
2021/07/09 03:03:34;;;;;;;;;;;;;;;19.07;67.34;101543.71;457000;114;924034;-77
2021/07/09 03:04:38;;;;;;;;;;;;;;;19.07;67.40;101543.71;456520;114;922734;-77
2021/07/09 03:05:41;;;;;;;;;;;;;;;19.06;67.32;101545.63;458071;113;922707;-74
2021/07/09 03:06:45;;;;;;;;;;;;;;;19.06;67.25;101547.56;450888;116;922664;-75
2021/07/09 03:07:49;;;;;;;;;;;;;;;19.05;67.18;101548.64;451057;116;922679;-75
2021/07/09 03:08:52;;;;;;;;;;;;;;;19.04;67.20;101544.19;449048;116;922701;-75
2021/07/09 03:09:55;;;;;;;;;;;;;;;19.03;67.24;101539.74;458134;114;922697;-76
2021/07/09 03:10:59;;;;;;;;;;;;;;;19.04;67.31;101547.80;440055;118;923359;-76
2021/07/09 03:12:02;;;;;;;;;;;;;;;19.07;67.44;101554.77;444082;116;922709;-73
2021/07/09 03:13:06;;;;;;;;;;;;;;;19.07;67.44;101543.71;444825;116;921710;-76
2021/07/09 03:14:09;;;;;;;;;;;;;;;19.08;67.50;101546.20;439297;116;921665;-76
2021/07/09 03:15:13;;;;;;;;;;;;;;;19.10;67.50;101544.05;450243;115;921400;-75
2021/07/09 03:16:17;;;;;;;;;;;;;;;19.12;67.56;101544.65;455129;115;921475;-75
2021/07/09 03:17:20;;;;;;;;;;;;;;;19.14;67.52;101549.91;459523;115;921418;-76
2021/07/09 03:18:24;;;;;;;;;;;;;;;19.15;67.47;101551.59;451294;113;921427;-75
2021/07/09 03:19:27;;;;;;;;;;;;;;;19.16;67.41;101536.69;452725;115;921635;-77
2021/07/09 03:20:31;;;;;;;;;;;;;;;19.18;67.42;101551.11;458181;114;921441;-76
2021/07/09 03:21:34;;;;;;;;;;;;;;;19.18;67.47;101551.92;458518;114;921445;-76
2021/07/09 03:22:38;;;;;;;;;;;;;;;19.19;67.48;101550.00;458224;114;921524;-76
2021/07/09 03:23:42;;;;;;;;;;;;;;;19.20;67.44;101550.84;458750;114;921540;-75
2021/07/09 03:24:45;;;;;;;;;;;;;;;19.21;67.42;101545.07;458701;114;921444;-76
2021/07/09 03:25:49;;;;;;;;;;;;;;;19.23;67.33;101551.20;457577;114;921499;-76
2021/07/09 03:26:54;;;;;;;;;;;;;;;19.23;67.33;101545.67;457327;114;921516;-75
2021/07/09 03:27:58;;;;;;;;;;;;;;;19.25;67.47;101537.95;456730;114;921514;-76
2021/07/09 03:29:01;;;;;;;;;;;;;;;19.28;67.50;101543.00;457689;113;921457;-75
2021/07/09 03:30:06;;;;;;;;;;;;;;;19.30;67.49;101535.27;456999;114;921505;-76
2021/07/09 03:31:09;;;;;;;;;;;;;;;19.33;67.42;101539.48;456552;114;921612;-76
2021/07/09 03:32:13;;;;;;;;;;;;;;;19.37;67.54;101544.25;457253;114;922078;-75
2021/07/09 03:33:18;;;;;;;;;;;;;;;19.41;67.68;101539.05;456395;114;921509;-74
2021/07/09 03:34:21;;;;;;;;;;;;;;;19.45;67.72;101538.36;454355;114;921534;-75
2021/07/09 03:35:24;;;;;;;;;;;;;;;19.50;67.48;101534.84;458385;114;922697;-74
2021/07/09 03:36:28;;;;;;;;;;;;;;;19.54;67.39;101539.61;457716;114;922619;-76
2021/07/09 03:37:31;;;;;;;;;;;;;;;19.57;67.26;101533.56;460091;114;922766;-75
2021/07/09 03:38:34;;;;;;;;;;;;;;;19.61;67.26;101531.15;453089;116;922654;-76
2021/07/09 03:39:38;;;;;;;;;;;;;;;19.64;67.20;101527.02;454307;114;922672;-73
2021/07/09 03:40:42;;;;;;;;;;;;;;;19.66;67.20;101531.23;459313;114;922632;-75
2021/07/09 03:41:45;;;;;;;;;;;;;;;19.70;67.10;101534.32;459580;114;922684;-74
2021/07/09 03:42:48;;;;;;;;;;;;;;;19.73;66.95;101533.84;460329;114;922658;-73
2021/07/09 03:43:52;;;;;;;;;;;;;;;19.77;66.88;101535.00;457162;112;922515;-75
2021/07/09 03:44:56;;;;;;;;;;;;;;;19.80;66.82;101528.95;457468;114;922746;-75
2021/07/09 03:45:59;;;;;;;;;;;;;;;19.82;66.71;101527.61;457811;114;922747;-74
2021/07/09 03:47:03;;;;;;;;;;;;;;;19.86;66.62;101528.77;458690;114;922674;-76
2021/07/09 03:48:06;;;;;;;;;;;;;;;19.89;66.50;101535.75;456241;114;923117;-76
2021/07/09 03:49:10;;;;;;;;;;;;;;;19.91;66.44;101525.23;455773;114;922687;-75
2021/07/09 03:50:14;;;;;;;;;;;;;;;19.94;66.35;101531.13;455334;114;922272;-75
2021/07/09 03:51:18;;;;;;;;;;;;;;;20.00;66.31;101534.81;456191;114;922623;-74
2021/07/09 03:52:21;;;;;;;;;;;;;;;20.04;66.23;101526.83;456176;114;922740;-75
2021/07/09 03:53:24;;;;;;;;;;;;;;;20.07;66.17;101527.14;455103;114;923169;-75
2021/07/09 03:54:28;;;;;;;;;;;;;;;20.10;66.11;101526.65;455795;114;923146;-75
2021/07/09 03:55:32;;;;;;;;;;;;;;;20.12;66.00;101524.47;454276;114;922708;-76
2021/07/09 03:56:36;;;;;;;;;;;;;;;20.15;65.90;101521.18;455037;114;921492;-75
2021/07/09 03:57:42;;;;;;;;;;;;;;;20.19;65.62;101530.64;454665;114;923068;-75
2021/07/09 03:58:45;;;;;;;;;;;;;;;20.20;65.33;101526.79;455553;115;922646;-77
2021/07/09 03:59:49;;;;;;;;;;;;;;;20.22;64.98;101532.92;451600;115;923146;-75
2021/07/09 04:00:53;;;;;;;;;;;;;;;20.23;64.88;101526.27;449581;115;922530;-76
2021/07/09 04:01:57;;;;;;;;;;;;;;;20.24;64.83;101527.95;458078;115;924833;-75
2021/07/09 04:03:01;;;;;;;;;;;;;;;20.25;64.81;101529.63;458775;115;922653;-76
2021/07/09 04:04:04;;;;;;;;;;;;;;;20.27;64.82;101521.91;457412;115;922614;-76
2021/07/09 04:05:09;;;;;;;;;;;;;;;20.28;64.66;101523.59;457250;115;922153;-76
2021/07/09 04:06:13;;;;;;;;;;;;;;;20.29;64.61;101522.47;456166;115;922278;-76
2021/07/09 04:07:16;;;;;;;;;;;;;;;20.31;64.59;101524.99;457532;115;922590;-76
2021/07/09 04:08:20;;;;;;;;;;;;;;;20.34;64.61;101524.53;455879;115;922666;-75
2021/07/09 04:09:23;;;;;;;;;;;;;;;20.36;64.73;101523.16;456743;115;922697;-75
2021/07/09 04:10:28;;;;;;;;;;;;;;;20.38;64.81;101517.38;446073;117;921798;-73
2021/07/09 04:11:31;;;;;;;;;;;;;;;20.40;64.93;101520.70;447815;117;922349;-76
2021/07/09 04:12:35;;;;;;;;;;;;;;;20.43;64.99;101522.98;456851;115;921710;-75
2021/07/09 04:13:39;;;;;;;;;;;;;;;20.46;64.78;101521.61;457052;115;921321;-76
2021/07/09 04:14:42;;;;;;;;;;;;;;;20.49;64.44;101523.88;455969;115;921606;-75
2021/07/09 04:15:46;;;;;;;;;;;;;;;20.52;64.48;101512.27;456772;115;921632;-74
2021/07/09 04:16:50;;;;;;;;;;;;;;;20.54;64.52;101516.47;455893;115;921629;-75
2021/07/09 04:17:53;;;;;;;;;;;;;;;20.57;64.12;101515.94;455648;115;921502;-75
2021/07/09 04:18:56;;;;;;;;;;;;;;;20.61;63.72;101510.73;453685;115;921638;-75
2021/07/09 04:20:00;;;;;;;;;;;;;;;20.64;63.57;101515.75;454896;115;921565;-75
2021/07/09 04:21:03;;;;;;;;;;;;;;;20.67;63.42;101506.94;454267;115;921438;-76
2021/07/09 04:22:07;;;;;;;;;;;;;;;20.70;63.32;101520.27;454643;115;921471;-76
2021/07/09 04:23:10;;;;;;;;;;;;;;;20.72;63.27;101504.22;455394;115;921625;-76
2021/07/09 04:24:13;;;;;;;;;;;;;;;20.74;63.18;101505.62;457630;115;921546;-76
2021/07/09 04:25:16;;;;;;;;;;;;;;;20.78;63.10;101508.73;459837;114;921409;-76
2021/07/09 04:26:21;;;;;;;;;;;;;;;20.80;63.19;101512.05;459816;114;921443;-76
2021/07/09 04:27:24;;;;;;;;;;;;;;;20.83;63.29;101507.94;460567;114;921395;-76
2021/07/09 04:28:27;;;;;;;;;;;;;;;20.86;63.31;101507.41;459973;114;921646;-74
2021/07/09 04:29:30;;;;;;;;;;;;;;;20.88;63.26;101508.84;452352;115;921499;-75
2021/07/09 04:30:35;;;;;;;;;;;;;;;20.91;63.20;101511.08;453216;115;922683;-76
2021/07/09 04:31:38;;;;;;;;;;;;;;;20.94;63.22;101509.73;453997;114;922709;-76
2021/07/09 04:32:41;;;;;;;;;;;;;;;20.97;63.09;101509.19;454019;115;922632;-75
2021/07/09 04:33:45;;;;;;;;;;;;;;;20.99;63.24;101502.30;454312;114;922710;-75
2021/07/09 04:34:49;;;;;;;;;;;;;;;21.02;63.17;101504.53;452514;114;923905;-75
2021/07/09 04:35:53;;;;;;;;;;;;;;;21.04;63.02;101505.13;453207;114;924346;-75
2021/07/09 04:36:57;;;;;;;;;;;;;;;21.06;62.92;101508.45;454295;115;922657;-74
2021/07/09 04:38:01;;;;;;;;;;;;;;;21.08;62.91;101505.42;454188;114;921473;-76
2021/07/09 04:39:04;;;;;;;;;;;;;;;21.11;62.78;101511.30;454290;114;923340;-75
2021/07/09 04:40:08;;;;;;;;;;;;;;;21.12;62.68;101512.95;453319;114;922717;-75
2021/07/09 04:41:12;;;;;;;;;;;;;;;21.14;62.54;101507.16;454650;114;922612;-74
2021/07/09 04:42:16;;;;;;;;;;;;;;;21.17;62.49;101504.71;455939;114;922677;-72
2021/07/09 04:43:19;;;;;;;;;;;;;;;21.20;62.44;101509.75;452679;115;922620;-75
2021/07/09 04:44:22;;;;;;;;;;;;;;;21.21;62.25;101503.11;449460;116;923124;-74
2021/07/09 04:45:26;;;;;;;;;;;;;;;21.27;62.20;101508.70;447465;115;922697;-76
2021/07/09 04:46:31;;;;;;;;;;;;;;;21.28;62.07;101505.64;463450;113;922636;-76
2021/07/09 04:47:34;;;;;;;;;;;;;;;21.32;61.93;101506.81;457944;115;923191;-75
2021/07/09 04:48:38;;;;;;;;;;;;;;;21.35;61.81;101506.27;455424;115;923016;-76
2021/07/09 04:49:41;;;;;;;;;;;;;;;21.38;61.66;101504.92;460505;113;922796;-77
2021/07/09 04:50:46;;;;;;;;;;;;;;;21.41;61.67;101505.22;461349;112;921693;-75
2021/07/09 04:51:50;;;;;;;;;;;;;;;21.43;61.65;101503.03;462272;113;922632;-73
2021/07/09 04:52:53;;;;;;;;;;;;;;;21.48;61.59;101505.00;460876;113;921457;-76
2021/07/09 04:53:56;;;;;;;;;;;;;;;21.51;61.56;101510.01;459860;113;922566;-73
2021/07/09 04:55:00;;;;;;;;;;;;;;;21.53;61.66;101502.27;453895;115;922648;-74
2021/07/09 04:56:04;;;;;;;;;;;;;;;21.56;61.59;101497.02;450304;116;923960;-75
2021/07/09 04:57:07;;;;;;;;;;;;;;;21.59;61.67;101499.27;448922;116;923427;-74
2021/07/09 04:58:10;;;;;;;;;;;;;;;21.62;61.68;101495.11;451413;116;924653;-75
2021/07/09 04:59:13;;;;;;;;;;;;;;;21.65;61.72;101494.59;451296;116;922722;-76
2021/07/09 05:00:17;;;;;;;;;;;;;;;21.68;61.70;101494.05;455894;114;922360;-75
2021/07/09 05:01:20;;;;;;;;;;;;;;;21.72;61.57;101495.21;457302;114;922673;-75
2021/07/09 05:02:25;;;;;;;;;;;;;;;21.75;61.53;101499.38;456579;114;923172;-75
2021/07/09 05:03:28;;;;;;;;;;;;;;;21.77;61.55;101495.25;456542;114;923754;-75
2021/07/09 05:04:32;;;;;;;;;;;;;;;21.81;61.62;101496.38;456332;111;923513;-75
2021/07/09 05:05:35;;;;;;;;;;;;;;;21.84;61.55;101497.77;453235;114;922679;-76
2021/07/09 05:06:38;;;;;;;;;;;;;;;21.86;61.54;101503.90;454550;114;922576;-76
2021/07/09 05:07:42;;;;;;;;;;;;;;;21.88;61.56;101499.77;459818;114;923055;-75
2021/07/09 05:08:45;;;;;;;;;;;;;;;21.90;61.53;101494.77;448629;117;922705;-74
2021/07/09 05:09:49;;;;;;;;;;;;;;;21.93;61.61;101496.18;452318;114;922737;-72
2021/07/09 05:10:53;;;;;;;;;;;;;;;21.94;61.59;101498.70;457843;113;922803;-75
2021/07/09 05:11:56;;;;;;;;;;;;;;;21.97;61.58;101498.18;452670;116;922683;-76
2021/07/09 05:12:59;;;;;;;;;;;;;;;21.98;61.70;101491.52;453411;116;923544;-74
2021/07/09 05:14:03;;;;;;;;;;;;;;;22.00;61.67;101491.23;456998;114;922614;-73
2021/07/09 05:15:07;;;;;;;;;;;;;;;22.03;61.58;101496.27;457102;114;922702;-74
2021/07/09 05:16:11;;;;;;;;;;;;;;;22.04;61.58;101492.39;457876;114;922507;-75
2021/07/09 05:17:15;;;;;;;;;;;;;;;22.08;61.63;101492.67;458152;114;922729;-75
2021/07/09 05:18:18;;;;;;;;;;;;;;;22.10;61.79;101493.26;455910;114;922626;-80
2021/07/09 05:19:21;;;;;;;;;;;;;;;22.11;61.89;101484.63;456672;114;922751;-76
2021/07/09 05:20:26;;;;;;;;;;;;;;;22.14;61.77;101494.38;457198;114;921443;-76
2021/07/09 05:21:30;;;;;;;;;;;;;;;22.16;61.65;101489.41;456605;114;921487;-78
2021/07/09 05:22:33;;;;;;;;;;;;;;;22.18;61.37;101487.17;455771;114;921507;-78
2021/07/09 05:23:37;;;;;;;;;;;;;;;22.18;61.25;101482.45;445669;118;921549;-76
2021/07/09 05:24:40;;;;;;;;;;;;;;;22.21;61.21;101483.88;448067;116;921798;-75